createdAt,value
2019-03-08T00:00:30.432Z,83.30
2019-03-08T00:02:59.600Z,83.30
2019-03-08T00:05:28.464Z,83.40
2019-03-08T00:07:57.294Z,83.50
2019-03-08T00:10:26.164Z,83.70
2019-03-08T00:12:55.027Z,83.60
2019-03-08T00:15:23.851Z,83.90
2019-03-08T00:17:53.019Z,83.90
2019-03-08T00:20:21.890Z,84.10
2019-03-08T00:22:50.766Z,84.20
2019-03-08T00:25:19.609Z,84.30
2019-03-08T00:27:48.476Z,84.40
2019-03-08T00:30:17.399Z,84.50
2019-03-08T00:32:46.588Z,84.50
2019-03-08T00:35:15.447Z,85.30
2019-03-08T00:37:44.280Z,84.70
2019-03-08T00:40:15.944Z,84.70
2019-03-08T00:42:44.807Z,84.70
2019-03-08T00:45:15.335Z,84.70
2019-03-08T00:47:44.313Z,85.00
2019-03-08T00:50:13.575Z,84.90
2019-03-08T00:52:42.412Z,85.00
2019-03-08T00:55:12.276Z,85.00
2019-03-08T00:57:41.140Z,85.10
2019-03-08T01:00:21.953Z,85.20
2019-03-08T01:02:50.808Z,85.20
2019-03-08T01:05:19.635Z,85.30
2019-03-08T01:07:48.502Z,85.40
2019-03-08T01:10:20.308Z,85.50
2019-03-08T01:12:49.131Z,85.60
2019-03-08T01:15:18.495Z,85.70
2019-03-08T01:17:47.362Z,85.80
2019-03-08T01:20:18.089Z,86.00
2019-03-08T01:22:46.964Z,86.10
2019-03-08T01:25:16.191Z,86.20
2019-03-08T01:27:59.439Z,86.20
2019-03-08T01:30:28.367Z,86.10
2019-03-08T01:32:57.232Z,86.20
2019-03-08T01:35:26.085Z,86.00
2019-03-08T01:37:55.231Z,86.40
2019-03-08T01:40:24.059Z,86.50
2019-03-08T01:42:52.927Z,86.60
2019-03-08T01:45:21.748Z,86.60
2019-03-08T01:47:50.627Z,86.60
2019-03-08T01:50:19.455Z,86.60
2019-03-08T01:52:48.331Z,86.70
2019-03-08T01:55:17.156Z,86.60
2019-03-08T01:57:46.025Z,86.60
2019-03-08T02:00:22.378Z,86.80
2019-03-08T02:02:51.247Z,86.70
2019-03-08T02:05:21.186Z,86.80
2019-03-08T02:07:50.047Z,86.90
2019-03-08T02:10:18.978Z,86.90
2019-03-08T02:12:47.839Z,87.10
2019-03-08T02:15:18.274Z,87.40
2019-03-08T02:17:47.143Z,87.60
2019-03-08T02:20:21.233Z,87.70
2019-03-08T02:22:50.104Z,87.80
2019-03-08T02:25:18.928Z,88.10
2019-03-08T02:27:47.792Z,88.20
2019-03-08T02:30:18.126Z,88.60
2019-03-08T02:32:47.130Z,88.60
2019-03-08T02:35:18.783Z,88.90
2019-03-08T02:37:47.651Z,88.90
2019-03-08T02:40:33.997Z,88.90
2019-03-08T02:43:04.966Z,88.80
2019-03-08T02:45:33.791Z,88.70
2019-03-08T02:48:02.660Z,88.70
2019-03-08T02:50:31.480Z,88.70
2019-03-08T02:53:00.347Z,88.70
2019-03-08T02:55:29.180Z,88.90
2019-03-08T02:57:58.240Z,88.80
2019-03-08T03:00:30.007Z,88.70
2019-03-08T03:02:58.884Z,88.50
2019-03-08T03:05:27.761Z,88.40
2019-03-08T03:07:56.595Z,88.10
2019-03-08T03:10:25.486Z,88.10
2019-03-08T03:12:54.335Z,87.80
2019-03-08T03:15:23.219Z,87.50
2019-03-08T03:17:52.088Z,87.30
2019-03-08T03:20:20.985Z,86.90
2019-03-08T03:22:49.821Z,86.40
2019-03-08T03:25:18.804Z,86.50
2019-03-08T03:27:47.662Z,86.30
2019-03-08T03:30:20.989Z,86.10
2019-03-08T03:32:49.833Z,85.90
2019-03-08T03:35:18.710Z,85.80
2019-03-08T03:37:47.956Z,85.80
2019-03-08T03:40:17.848Z,85.80
2019-03-08T03:42:46.704Z,85.90
2019-03-08T03:45:17.818Z,86.00
2019-03-08T03:47:46.657Z,86.10
2019-03-08T03:50:15.937Z,86.20
2019-03-08T03:52:44.882Z,86.30
2019-03-08T03:55:18.601Z,86.40
2019-03-08T03:57:47.444Z,86.40
2019-03-08T04:00:23.567Z,86.50
2019-03-08T04:02:52.416Z,86.40
2019-03-08T04:05:21.309Z,86.40
2019-03-08T04:07:50.153Z,86.70
2019-03-08T04:10:19.852Z,86.40
2019-03-08T04:12:48.701Z,86.50
2019-03-08T04:15:19.755Z,86.60
2019-03-08T04:17:48.903Z,86.50
2019-03-08T04:20:19.177Z,86.50
2019-03-08T04:22:48.051Z,86.50
2019-03-08T04:25:16.933Z,86.50
2019-03-08T04:27:45.768Z,86.50
2019-03-08T04:30:16.377Z,86.50
2019-03-08T04:32:45.316Z,86.50
2019-03-08T04:35:14.169Z,86.60
2019-03-08T04:37:43.062Z,86.60
2019-03-08T04:40:12.938Z,86.60
2019-03-08T04:42:41.849Z,86.60
2019-03-08T04:45:16.036Z,86.60
2019-03-08T04:47:44.919Z,86.80
2019-03-08T04:50:17.350Z,86.80
2019-03-08T04:52:46.230Z,86.60
2019-03-08T04:55:18.094Z,86.60
2019-03-08T04:57:47.436Z,87.00
2019-03-08T05:00:18.447Z,87.20
2019-03-08T05:02:47.324Z,87.50
2019-03-08T05:05:16.163Z,87.50
2019-03-08T05:07:45.042Z,87.80
2019-03-08T05:10:18.081Z,88.10
2019-03-08T05:12:46.976Z,88.40
2019-03-08T05:15:15.822Z,88.40
2019-03-08T05:17:44.724Z,88.40
2019-03-08T05:20:13.567Z,88.40
2019-03-08T05:22:42.471Z,88.20
2019-03-08T05:25:14.747Z,88.10
2019-03-08T05:27:43.621Z,88.10
2019-03-08T05:30:14.266Z,87.80
2019-03-08T05:32:43.154Z,87.70
2019-03-08T05:35:13.294Z,88.20
2019-03-08T05:37:42.286Z,87.70
2019-03-08T05:40:13.132Z,87.70
2019-03-08T05:42:42.112Z,88.40
2019-03-08T05:45:12.276Z,87.40
2019-03-08T05:47:41.166Z,87.50
2019-03-08T05:50:11.125Z,87.50
2019-03-08T05:52:40.008Z,87.20
2019-03-08T05:55:10.157Z,87.10
2019-03-08T05:57:39.044Z,86.90
2019-03-08T06:00:14.917Z,86.90
2019-03-08T06:02:43.829Z,86.80
2019-03-08T06:05:12.719Z,86.60
2019-03-08T06:07:41.568Z,86.60
2019-03-08T06:10:31.489Z,86.50
2019-03-08T06:13:01.771Z,86.60
2019-03-08T06:15:30.612Z,86.60
2019-03-08T06:17:59.705Z,86.70
2019-03-08T06:20:28.609Z,86.50
2019-03-08T06:22:57.455Z,86.50
2019-03-08T06:25:26.350Z,87.40
2019-03-08T06:27:55.233Z,86.90
2019-03-08T06:30:24.075Z,86.90
2019-03-08T06:32:53.252Z,87.00
2019-03-08T06:35:22.133Z,87.00
2019-03-08T06:37:50.974Z,87.10
2019-03-08T06:40:19.844Z,87.10
2019-03-08T06:42:48.732Z,87.20
2019-03-08T06:45:18.380Z,87.40
2019-03-08T06:47:47.556Z,88.20
2019-03-08T06:50:16.840Z,87.60
2019-03-08T06:52:45.780Z,87.70
2019-03-08T06:55:19.061Z,87.80
2019-03-08T06:57:50.888Z,87.90
2019-03-08T07:00:22.145Z,87.80
2019-03-08T07:02:51.029Z,87.70
2019-03-08T07:05:19.877Z,87.70
2019-03-08T07:07:48.769Z,87.60
2019-03-08T07:10:17.649Z,87.40
2019-03-08T07:12:46.500Z,87.30
2019-03-08T07:15:15.694Z,86.90
2019-03-08T07:17:44.584Z,86.30
2019-03-08T07:20:21.021Z,86.30
2019-03-08T07:23:06.720Z,86.00
2019-03-08T07:25:51.827Z,85.70
2019-03-08T07:28:30.470Z,85.30
2019-03-08T07:31:12.854Z,85.00
2019-03-08T07:33:53.275Z,84.60
2019-03-08T07:36:24.824Z,84.20
2019-03-08T07:38:58.362Z,83.90
2019-03-08T07:41:31.825Z,83.60
2019-03-08T07:44:18.528Z,83.40
2019-03-08T07:46:48.986Z,82.70
2019-03-08T07:49:19.480Z,81.70
2019-03-08T07:51:49.909Z,81.60
2019-03-08T07:54:20.368Z,81.10
2019-03-08T07:56:50.785Z,80.90
2019-03-08T07:59:23.672Z,80.60
2019-03-08T08:02:00.154Z,80.30
2019-03-08T08:04:47.394Z,79.70
2019-03-08T08:07:24.135Z,78.70
2019-03-08T08:09:58.148Z,77.90
2019-03-08T08:12:40.822Z,77.10
2019-03-08T08:15:29.445Z,77.10
2019-03-08T08:17:59.908Z,77.10
2019-03-08T08:20:33.080Z,76.80
2019-03-08T08:23:06.523Z,76.20
2019-03-08T08:25:55.499Z,76.00
2019-03-08T08:28:26.132Z,76.20
2019-03-08T08:30:59.284Z,75.90
2019-03-08T08:33:32.700Z,75.50
2019-03-08T08:36:09.170Z,75.30
2019-03-08T08:38:42.944Z,75.00
2019-03-08T08:41:16.283Z,74.80
2019-03-08T08:43:46.737Z,74.80
2019-03-08T08:46:22.651Z,74.70
2019-03-08T08:48:56.066Z,75.20
2019-03-08T08:51:26.500Z,74.50
2019-03-08T08:54:12.219Z,74.00
2019-03-08T08:56:57.568Z,74.00
2019-03-08T08:59:31.155Z,74.00
2019-03-08T09:02:04.444Z,73.90
2019-03-08T09:04:46.855Z,73.80
2019-03-08T09:07:25.396Z,73.10
2019-03-08T09:10:04.750Z,72.20
2019-03-08T09:12:40.938Z,72.00
2019-03-08T09:15:22.466Z,71.60
2019-03-08T09:18:09.254Z,71.40
2019-03-08T09:20:48.495Z,71.10
2019-03-08T09:23:28.155Z,70.40
2019-03-08T09:26:01.296Z,69.80
2019-03-08T09:28:47.978Z,69.00
2019-03-08T09:31:27.262Z,68.30
2019-03-08T09:33:57.795Z,67.80
2019-03-08T09:36:28.279Z,67.90
2019-03-08T09:39:01.214Z,68.10
2019-03-08T09:41:32.139Z,68.40
2019-03-08T09:44:11.339Z,68.60
2019-03-08T09:46:49.298Z,68.40
2019-03-08T09:49:25.913Z,67.50
2019-03-08T09:51:56.311Z,66.60
2019-03-08T09:54:29.525Z,66.10
2019-03-08T09:56:59.963Z,66.30
2019-03-08T09:59:30.359Z,66.20
2019-03-08T10:02:17.288Z,66.30
2019-03-08T10:05:02.828Z,66.50
2019-03-08T10:07:51.632Z,66.40
2019-03-08T10:10:22.394Z,66.40
2019-03-08T10:12:55.691Z,66.80
2019-03-08T10:15:32.349Z,66.20
2019-03-08T10:18:05.547Z,66.30
2019-03-08T10:20:52.524Z,66.20
2019-03-08T10:23:22.968Z,65.90
2019-03-08T10:25:53.404Z,65.20
2019-03-08T10:28:24.143Z,65.00
2019-03-08T10:30:57.339Z,64.60
2019-03-08T10:33:27.774Z,64.30
2019-03-08T10:36:07.160Z,64.30
2019-03-08T10:38:49.727Z,63.70
2019-03-08T10:41:26.044Z,63.50
2019-03-08T10:43:56.490Z,63.30
2019-03-08T10:46:39.147Z,63.10
2019-03-08T10:49:09.584Z,63.30
2019-03-08T10:51:56.368Z,63.20
2019-03-08T10:54:26.792Z,63.30
2019-03-08T10:57:02.923Z,63.30
2019-03-08T10:59:33.329Z,63.40
2019-03-08T11:02:16.108Z,63.60
2019-03-08T11:04:49.003Z,63.70
2019-03-08T11:07:19.773Z,62.40
2019-03-08T11:09:50.224Z,62.20
2019-03-08T11:12:20.639Z,61.60
2019-03-08T11:15:07.111Z,61.00
2019-03-08T11:17:40.486Z,60.60
2019-03-08T11:20:28.179Z,60.20
2019-03-08T11:23:10.496Z,59.40
2019-03-08T11:25:43.709Z,58.80
2019-03-08T11:28:26.184Z,57.80
2019-03-08T11:31:14.945Z,57.30
2019-03-08T11:33:48.395Z,57.10
2019-03-08T11:36:23.551Z,57.00
2019-03-08T11:38:57.153Z,56.60
2019-03-08T11:41:39.448Z,57.00
2019-03-08T11:44:12.595Z,57.10
2019-03-08T11:47:01.003Z,57.10
2019-03-08T11:49:31.754Z,57.10
2019-03-08T11:52:02.158Z,57.00
2019-03-08T11:54:40.610Z,57.30
2019-03-08T11:57:07.798Z,57.20
2019-03-08T11:59:38.243Z,57.60
2019-03-08T12:02:14.643Z,57.70
2019-03-08T12:04:48.111Z,57.80
2019-03-08T12:07:18.568Z,57.80
2019-03-08T12:09:48.973Z,57.80
2019-03-08T12:12:28.721Z,57.90
2019-03-08T12:15:08.158Z,57.30
2019-03-08T12:17:41.658Z,57.30
2019-03-08T12:20:16.182Z,57.20
2019-03-08T12:22:55.619Z,57.20
2019-03-08T12:25:32.100Z,57.40
2019-03-08T12:28:02.509Z,57.40
2019-03-08T12:30:35.898Z,57.20
2019-03-08T12:33:21.074Z,57.30
2019-03-08T12:35:51.502Z,57.40
2019-03-08T12:38:21.924Z,57.30
2019-03-08T12:40:58.705Z,57.60
2019-03-08T12:43:29.154Z,57.60
2019-03-08T12:45:59.590Z,57.60
2019-03-08T12:48:42.006Z,57.20
2019-03-08T12:51:18.403Z,57.00
2019-03-08T12:53:51.985Z,56.70
2019-03-08T12:56:24.972Z,56.80
2019-03-08T12:58:55.406Z,57.10
2019-03-08T13:01:25.816Z,57.40
2019-03-08T13:04:05.218Z,57.70
2019-03-08T13:06:41.524Z,57.90
2019-03-08T13:09:23.108Z,59.30
2019-03-08T13:11:51.987Z,63.10
2019-03-08T13:14:20.804Z,68.20
2019-03-08T13:16:49.678Z,71.60
2019-03-08T13:19:18.539Z,74.40
2019-03-08T13:22:05.479Z,76.70
2019-03-08T13:24:34.338Z,79.10
2019-03-08T13:27:03.174Z,80.10
2019-03-08T13:29:32.039Z,81.10
2019-03-08T13:32:00.895Z,81.90
2019-03-08T13:34:30.023Z,82.80
2019-03-08T13:36:58.895Z,82.70
2019-03-08T13:39:27.769Z,82.90
2019-03-08T13:41:56.586Z,83.10
2019-03-08T13:44:25.457Z,82.60
2019-03-08T13:46:54.319Z,82.10
2019-03-08T13:49:23.442Z,81.40
2019-03-08T13:51:52.306Z,80.70
2019-03-08T13:54:21.178Z,80.60
2019-03-08T13:56:50.000Z,80.90
2019-03-08T13:59:18.864Z,80.70
2019-03-08T14:01:47.731Z,80.60
2019-03-08T14:04:16.563Z,80.60
2019-03-08T14:06:45.477Z,79.20
2019-03-08T14:09:15.467Z,79.20
2019-03-08T14:11:47.514Z,78.90
2019-03-08T14:14:16.380Z,77.80
2019-03-08T14:16:45.520Z,76.90
2019-03-08T14:19:14.397Z,76.10
2019-03-08T14:21:43.267Z,75.40
2019-03-08T14:24:12.093Z,75.30
2019-03-08T14:26:40.963Z,74.60
2019-03-08T14:29:09.823Z,74.50
2019-03-08T14:31:49.311Z,74.30
2019-03-08T14:34:17.779Z,74.10
2019-03-08T14:36:46.676Z,73.40
2019-03-08T14:39:15.574Z,73.20
2019-03-08T14:41:46.011Z,74.40
2019-03-08T14:44:32.594Z,74.60
2019-03-08T14:47:06.018Z,75.60
2019-03-08T14:49:34.880Z,77.70
2019-03-08T14:52:03.703Z,79.20
2019-03-08T14:54:32.530Z,80.60
2019-03-08T14:57:01.394Z,81.50
2019-03-08T14:59:30.260Z,82.20
2019-03-08T15:01:59.087Z,82.90
2019-03-08T15:04:29.421Z,83.40
2019-03-08T15:07:01.222Z,83.80
2019-03-08T15:09:29.455Z,84.00
2019-03-08T15:12:00.600Z,84.10
2019-03-08T15:14:30.206Z,83.50
2019-03-08T15:17:08.737Z,83.30
2019-03-08T15:19:30.559Z,83.00
2019-03-08T15:21:59.423Z,82.90
2019-03-08T15:24:28.243Z,82.90
2019-03-08T15:26:57.115Z,83.10
2019-03-08T15:29:25.980Z,83.10
2019-03-08T15:31:55.011Z,83.70
2019-03-08T15:34:23.881Z,84.70
2019-03-08T15:36:52.739Z,85.80
2019-03-08T15:39:21.576Z,87.10
2019-03-08T15:41:50.427Z,87.70
2019-03-08T15:44:19.292Z,88.60
2019-03-08T15:46:48.115Z,89.40
2019-03-08T15:49:16.983Z,89.80
2019-03-08T15:51:45.843Z,90.10
2019-03-08T15:54:14.667Z,90.30
2019-03-08T15:56:43.532Z,90.40
2019-03-08T15:59:12.400Z,91.00
2019-03-08T16:01:41.232Z,90.80
2019-03-08T16:04:12.071Z,91.00
2019-03-08T16:06:43.870Z,91.10
2019-03-08T16:09:11.188Z,91.30
2019-03-08T16:11:40.047Z,91.40
2019-03-08T16:14:09.310Z,91.60
2019-03-08T16:16:38.243Z,91.70
2019-03-08T16:19:07.103Z,91.70
2019-03-08T16:21:35.972Z,91.80
2019-03-08T16:24:05.396Z,91.90
2019-03-08T16:26:34.270Z,92.00
2019-03-08T16:29:02.916Z,92.00
2019-03-08T16:31:33.220Z,92.10
2019-03-08T16:34:03.445Z,92.20
2019-03-08T16:36:33.970Z,92.20
2019-03-08T16:39:04.156Z,92.30
2019-03-08T16:41:37.063Z,92.30
2019-03-08T16:44:22.260Z,92.40
2019-03-08T16:47:04.463Z,92.50
2019-03-08T16:49:34.697Z,92.70
2019-03-08T16:52:07.842Z,92.70
2019-03-08T16:54:38.373Z,92.80
2019-03-08T16:57:14.536Z,92.90
2019-03-08T16:59:44.979Z,93.00
2019-03-08T17:02:15.421Z,93.00
2019-03-08T17:05:20.268Z,92.90
2019-03-08T17:07:50.710Z,92.90
2019-03-08T17:10:37.759Z,93.00
2019-03-08T17:13:11.167Z,93.10
2019-03-08T17:15:41.608Z,93.20
2019-03-08T17:18:12.015Z,93.30
2019-03-08T17:20:59.052Z,93.30
2019-03-08T17:23:31.566Z,93.40
2019-03-08T17:26:07.058Z,93.50
2019-03-08T17:28:40.115Z,93.60
2019-03-08T17:31:10.565Z,93.70
2019-03-08T17:33:40.994Z,93.80
2019-03-08T17:36:11.400Z,94.20
2019-03-08T17:38:47.795Z,93.80
2019-03-08T17:41:24.436Z,93.90
2019-03-08T17:43:57.759Z,93.90
2019-03-08T17:46:28.160Z,93.90
2019-03-08T17:49:04.460Z,93.90
2019-03-08T17:51:43.596Z,94.00
2019-03-08T17:54:26.423Z,94.00
2019-03-08T17:57:00.260Z,93.90
2019-03-08T17:59:30.706Z,94.00
2019-03-08T18:02:09.960Z,94.00
2019-03-08T18:04:49.383Z,94.00
2019-03-08T18:07:19.825Z,94.10
2019-03-08T18:10:06.795Z,94.10
2019-03-08T18:12:37.239Z,94.20
2019-03-08T18:15:09.911Z,94.20
2019-03-08T18:17:43.336Z,94.20
2019-03-08T18:20:16.465Z,94.20
2019-03-08T18:22:46.910Z,94.20
2019-03-08T18:25:26.423Z,94.20
2019-03-08T18:27:59.992Z,94.30
2019-03-08T18:30:46.935Z,94.30
2019-03-08T18:33:20.368Z,94.40
2019-03-08T18:36:03.054Z,94.30
2019-03-08T18:38:36.187Z,94.40
2019-03-08T18:41:06.724Z,94.40
2019-03-08T18:43:37.159Z,94.40
2019-03-08T18:46:16.679Z,94.40
2019-03-08T18:48:47.119Z,94.50
2019-03-08T18:51:23.441Z,94.50
2019-03-08T18:54:10.105Z,94.50
2019-03-08T18:56:40.547Z,94.50
2019-03-08T18:59:29.620Z,94.50
2019-03-08T19:02:02.792Z,94.50
2019-03-08T19:04:42.147Z,94.50
2019-03-08T19:07:29.143Z,94.50
2019-03-08T19:10:02.632Z,94.40
2019-03-08T19:12:33.082Z,94.50
2019-03-08T19:15:12.810Z,94.50
2019-03-08T19:17:58.220Z,94.60
2019-03-08T19:20:45.021Z,94.60
2019-03-08T19:23:15.550Z,94.60
2019-03-08T19:25:46.002Z,94.60
2019-03-08T19:28:25.426Z,94.60
2019-03-08T19:30:55.872Z,94.60
2019-03-08T19:33:31.926Z,94.60
2019-03-08T19:36:02.323Z,94.60
2019-03-08T19:38:41.636Z,94.60
2019-03-08T19:41:14.789Z,94.60
2019-03-08T19:43:45.285Z,94.60
2019-03-08T19:46:24.788Z,94.60
2019-03-08T19:49:10.804Z,94.60
2019-03-08T19:51:57.661Z,94.60
2019-03-08T19:54:28.124Z,94.60
2019-03-08T19:57:01.773Z,94.50
2019-03-08T19:59:34.953Z,94.50
2019-03-08T20:02:17.652Z,94.60
2019-03-08T20:04:51.711Z,94.60
2019-03-08T20:07:25.116Z,94.60
2019-03-08T20:10:13.672Z,94.60
2019-03-08T20:13:00.794Z,94.60
2019-03-08T20:15:36.843Z,95.00
2019-03-08T20:18:20.112Z,94.70
2019-03-08T20:21:02.869Z,94.70
2019-03-08T20:23:51.544Z,94.70
2019-03-08T20:26:22.192Z,94.70
2019-03-08T20:28:58.421Z,94.70
2019-03-08T20:31:34.615Z,94.70
2019-03-08T20:34:16.977Z,94.70
2019-03-08T20:36:53.618Z,94.80
2019-03-08T20:39:36.376Z,94.80
2019-03-08T20:42:07.076Z,94.80
2019-03-08T20:45:06.367Z,94.80
2019-03-08T20:47:36.606Z,94.90
2019-03-08T20:50:11.247Z,94.90
2019-03-08T20:52:40.801Z,95.00
2019-03-08T20:55:11.381Z,95.10
2019-03-08T20:57:40.312Z,95.10
2019-03-08T21:00:17.258Z,95.20
2019-03-08T21:02:46.254Z,95.20
2019-03-08T21:05:15.525Z,95.20
2019-03-08T21:07:44.701Z,95.30
2019-03-08T21:10:15.353Z,95.40
2019-03-08T21:12:51.097Z,95.50
2019-03-08T21:15:25.510Z,95.60
2019-03-08T21:17:52.561Z,95.60
2019-03-08T21:20:22.218Z,95.70
2019-03-08T21:22:51.190Z,95.70
2019-03-08T21:25:20.266Z,95.70
2019-03-08T21:27:49.235Z,95.70
2019-03-08T21:30:19.386Z,95.70
2019-03-08T21:32:48.382Z,95.70
2019-03-08T21:35:17.224Z,95.70
2019-03-08T21:37:46.510Z,95.70
2019-03-08T21:40:15.737Z,95.70
2019-03-08T21:42:44.603Z,95.60
2019-03-08T21:45:15.544Z,95.60
2019-03-08T21:47:44.418Z,95.50
2019-03-08T21:50:18.091Z,95.50
2019-03-08T21:52:46.963Z,95.50
2019-03-08T21:55:15.788Z,95.40
2019-03-08T21:57:44.686Z,95.40
2019-03-08T22:00:25.187Z,95.30
2019-03-08T22:02:54.051Z,95.30
2019-03-08T22:05:24.497Z,95.20
2019-03-08T22:07:53.325Z,95.20
2019-03-08T22:10:23.763Z,95.20
2019-03-08T22:12:52.998Z,95.10
2019-03-08T22:15:21.820Z,95.00
2019-03-08T22:17:50.679Z,95.00
2019-03-08T22:20:19.548Z,94.90
2019-03-08T22:22:48.377Z,94.80
2019-03-08T22:25:17.256Z,94.70
2019-03-08T22:27:46.148Z,94.60
2019-03-08T22:30:17.155Z,94.40
2019-03-08T22:32:46.028Z,94.40
2019-03-08T22:35:14.895Z,94.30
2019-03-08T22:37:43.731Z,94.20
2019-03-08T22:40:12.595Z,94.10
2019-03-08T22:42:41.459Z,94.10
2019-03-08T22:45:12.486Z,94.00
2019-03-08T22:47:41.360Z,93.90
2019-03-08T22:50:14.812Z,93.80
2019-03-08T22:52:43.680Z,93.70
2019-03-08T22:55:14.135Z,93.60
2019-03-08T22:57:42.967Z,93.50
2019-03-08T23:00:25.507Z,93.40
2019-03-08T23:02:54.471Z,93.30
2019-03-08T23:05:23.306Z,93.20
2019-03-08T23:07:58.463Z,93.20
2019-03-08T23:10:27.334Z,93.20
2019-03-08T23:12:56.163Z,93.10
2019-03-08T23:15:25.053Z,93.00
2019-03-08T23:17:53.920Z,93.00
2019-03-08T23:20:22.743Z,92.90
2019-03-08T23:22:51.611Z,92.80
2019-03-08T23:25:20.477Z,92.80
2019-03-08T23:27:50.877Z,92.70
2019-03-08T23:30:21.311Z,92.50
2019-03-08T23:32:50.178Z,92.40
2019-03-08T23:35:19.003Z,92.30
2019-03-08T23:37:47.866Z,92.20
2019-03-08T23:40:16.731Z,92.20
2019-03-08T23:42:45.559Z,92.20
2019-03-08T23:45:14.423Z,92.10
2019-03-08T23:47:43.290Z,92.00
2019-03-08T23:50:12.120Z,91.90
2019-03-08T23:52:41.288Z,91.80
2019-03-08T23:55:11.055Z,91.70
2019-03-08T23:57:39.883Z,91.70
